createdAt,value
2018-04-15T00:01:17.375Z,31.00
2018-04-15T00:03:44.172Z,35.73
2018-04-15T00:06:10.925Z,38.73
2018-04-15T00:08:37.725Z,40.13
2018-04-15T00:11:04.481Z,38.33
2018-04-15T00:13:31.373Z,35.63
2018-04-15T00:15:58.128Z,32.70
2018-04-15T00:18:24.989Z,39.17
2018-04-15T00:20:51.789Z,36.33
2018-04-15T00:23:18.535Z,32.40
2018-04-15T00:25:45.298Z,33.67
2018-04-15T00:28:12.103Z,35.07
2018-04-15T00:30:38.852Z,35.33
2018-04-15T00:33:05.617Z,32.07
2018-04-15T00:35:32.413Z,34.63
2018-04-15T00:37:59.176Z,37.13
2018-04-15T00:40:25.919Z,33.70
2018-04-15T00:42:52.682Z,34.37
2018-04-15T00:45:19.449Z,39.83
2018-04-15T00:47:46.196Z,35.47
2018-04-15T00:50:12.964Z,37.43
2018-04-15T00:52:39.728Z,34.67
2018-04-15T00:55:06.486Z,37.10
2018-04-15T00:57:33.265Z,41.37
2018-04-15T01:00:00.057Z,44.20
2018-04-15T01:02:26.844Z,35.20
2018-04-15T01:04:53.646Z,35.50
2018-04-15T01:07:20.455Z,39.17
2018-04-15T01:09:47.204Z,42.83
2018-04-15T01:12:13.984Z,44.73
2018-04-15T01:14:40.760Z,41.10
2018-04-15T01:17:07.504Z,43.30
2018-04-15T01:19:34.252Z,39.27
2018-04-15T01:22:01.001Z,40.43
2018-04-15T01:24:27.777Z,43.13
2018-04-15T01:26:54.539Z,38.47
2018-04-15T01:29:21.294Z,42.40
2018-04-15T01:31:48.079Z,43.07
2018-04-15T01:34:14.966Z,39.30
2018-04-15T01:36:41.774Z,39.67
2018-04-15T01:39:08.532Z,39.37
2018-04-15T01:41:35.294Z,37.63
2018-04-15T01:44:02.040Z,35.33
2018-04-15T01:46:28.782Z,35.97
2018-04-15T01:48:55.633Z,35.70
2018-04-15T01:51:22.397Z,35.83
2018-04-15T01:53:49.153Z,31.53
2018-04-15T01:56:15.918Z,32.17
2018-04-15T01:58:42.690Z,33.23
2018-04-15T02:01:09.457Z,37.33
2018-04-15T02:03:36.232Z,36.27
2018-04-15T02:06:03.073Z,36.73
2018-04-15T02:08:29.848Z,34.13
2018-04-15T02:10:56.595Z,34.67
2018-04-15T02:13:23.412Z,36.37
2018-04-15T02:15:50.173Z,34.07
2018-04-15T02:18:16.917Z,33.73
2018-04-15T02:20:43.673Z,35.47
2018-04-15T02:23:10.442Z,35.43
2018-04-15T02:25:37.205Z,38.73
2018-04-15T02:28:03.968Z,36.03
2018-04-15T02:30:30.777Z,36.80
2018-04-15T02:32:57.539Z,36.10
2018-04-15T02:35:24.293Z,33.80
2018-04-15T02:37:51.073Z,34.47
2018-04-15T02:40:24.899Z,35.20
2018-04-15T02:42:51.716Z,35.77
2018-04-15T02:45:18.465Z,35.20
2018-04-15T02:47:45.221Z,33.90
2018-04-15T02:50:12.001Z,36.53
2018-04-15T02:52:38.760Z,34.20
2018-04-15T02:55:05.527Z,31.50
2018-04-15T02:57:32.279Z,31.27
2018-04-15T02:59:59.159Z,34.33
2018-04-15T03:02:25.936Z,36.87
2018-04-15T03:04:52.672Z,33.03
2018-04-15T03:07:19.427Z,37.07
2018-04-15T03:09:46.185Z,33.03
2018-04-15T03:12:13.001Z,29.20
2018-04-15T03:14:39.746Z,36.30
2018-04-15T03:17:06.509Z,35.77
2018-04-15T03:19:33.267Z,31.67
2018-04-15T03:22:00.013Z,31.07
2018-04-15T03:24:26.769Z,36.70
2018-04-15T03:26:53.531Z,34.73
2018-04-15T03:29:20.288Z,33.93
2018-04-15T03:31:47.061Z,33.80
2018-04-15T03:34:13.833Z,29.67
2018-04-15T03:36:40.603Z,34.87
2018-04-15T03:39:07.357Z,36.77
2018-04-15T03:41:34.104Z,30.57
2018-04-15T03:44:00.894Z,31.33
2018-04-15T03:46:27.666Z,29.93
2018-04-15T03:48:54.417Z,36.07
2018-04-15T03:51:21.184Z,33.80
2018-04-15T03:53:47.952Z,41.70
2018-04-15T03:56:14.720Z,35.07
2018-04-15T03:58:41.497Z,36.70
2018-04-15T04:01:08.377Z,35.70
2018-04-15T04:03:35.160Z,35.57
2018-04-15T04:06:01.950Z,34.60
2018-04-15T04:08:28.696Z,36.63
2018-04-15T04:10:55.453Z,33.00
2018-04-15T04:13:22.241Z,30.60
2018-04-15T04:15:49.021Z,33.07
2018-04-15T04:18:21.702Z,35.87
2018-04-15T04:20:54.266Z,33.23
2018-04-15T04:23:26.694Z,26.07
2018-04-15T04:25:59.424Z,31.80
2018-04-15T04:28:26.200Z,27.30
2018-04-15T04:30:52.945Z,26.90
2018-04-15T04:33:19.747Z,26.47
2018-04-15T04:35:46.522Z,28.30
2018-04-15T04:38:13.268Z,26.20
2018-04-15T04:40:40.063Z,24.27
2018-04-15T04:43:06.806Z,23.67
2018-04-15T04:45:33.553Z,26.00
2018-04-15T04:48:00.299Z,25.43
2018-04-15T04:50:27.048Z,27.13
2018-04-15T04:52:53.827Z,26.40
2018-04-15T04:55:20.572Z,29.80
2018-04-15T04:57:47.338Z,22.93
2018-04-15T05:00:14.088Z,28.23
2018-04-15T05:02:40.837Z,26.40
2018-04-15T05:05:07.633Z,24.03
2018-04-15T05:07:34.403Z,29.07
2018-04-15T05:10:01.185Z,25.67
2018-04-15T05:12:27.952Z,26.60
2018-04-15T05:14:54.768Z,23.93
2018-04-15T05:17:21.508Z,27.23
2018-04-15T05:19:48.281Z,26.77
2018-04-15T05:22:15.049Z,26.10
2018-04-15T05:24:41.781Z,23.73
2018-04-15T05:27:08.658Z,27.47
2018-04-15T05:29:35.414Z,27.23
2018-04-15T05:32:02.245Z,30.77
2018-04-15T05:34:29.029Z,27.20
2018-04-15T05:36:55.810Z,27.47
2018-04-15T05:39:22.565Z,27.10
2018-04-15T05:41:49.348Z,26.17
2018-04-15T05:44:16.140Z,27.97
2018-04-15T05:46:42.895Z,27.47
2018-04-15T05:49:09.699Z,25.97
2018-04-15T05:51:36.449Z,28.03
2018-04-15T05:54:03.209Z,30.77
2018-04-15T05:56:29.987Z,32.30
2018-04-15T05:58:56.767Z,24.73
2018-04-15T06:01:23.564Z,27.97
2018-04-15T06:03:50.341Z,24.20
2018-04-15T06:06:17.089Z,24.00
2018-04-15T06:08:44.035Z,27.17
2018-04-15T06:11:10.856Z,23.10
2018-04-15T06:13:37.602Z,24.60
2018-04-15T06:16:04.392Z,24.80
2018-04-15T06:18:31.154Z,24.27
2018-04-15T06:20:57.933Z,24.70
2018-04-15T06:23:24.742Z,24.27
2018-04-15T06:25:51.507Z,22.63
2018-04-15T06:28:18.264Z,24.10
2018-04-15T06:30:45.043Z,21.60
2018-04-15T06:33:11.937Z,20.13
2018-04-15T06:35:38.712Z,21.33
2018-04-15T06:38:05.469Z,20.97
2018-04-15T06:40:32.242Z,18.47
2018-04-15T06:42:59.010Z,17.43
2018-04-15T06:45:25.756Z,17.27
2018-04-15T06:47:52.513Z,16.70
2018-04-15T06:50:19.261Z,18.27
2018-04-15T06:52:46.058Z,20.93
2018-04-15T06:55:12.811Z,19.63
2018-04-15T06:57:39.571Z,17.97
2018-04-15T07:00:06.330Z,17.97
2018-04-15T07:02:33.076Z,18.27
2018-04-15T07:04:59.891Z,18.63
2018-04-15T07:07:26.696Z,20.07
2018-04-15T07:09:53.467Z,18.17
2018-04-15T07:12:20.220Z,17.73
2018-04-15T07:14:47.098Z,16.20
2018-04-15T07:17:13.853Z,16.20
2018-04-15T07:19:40.640Z,15.17
2018-04-15T07:22:07.389Z,15.03
2018-04-15T07:24:34.184Z,14.80
2018-04-15T07:27:00.942Z,16.87
2018-04-15T07:29:27.747Z,13.93
2018-04-15T07:31:55.057Z,18.17
2018-04-15T07:34:21.843Z,14.87
2018-04-15T07:36:48.608Z,13.30
2018-04-15T07:39:15.393Z,14.40
2018-04-15T07:41:42.218Z,11.40
2018-04-15T07:44:09.021Z,15.07
2018-04-15T07:46:35.848Z,11.57
2018-04-15T07:49:02.640Z,15.13
2018-04-15T07:51:29.432Z,15.33
2018-04-15T07:53:56.173Z,15.07
2018-04-15T07:56:23.888Z,13.90
2018-04-15T07:58:50.741Z,12.73
2018-04-15T08:01:17.533Z,11.80
2018-04-15T08:03:44.287Z,16.07
2018-04-15T08:06:11.047Z,15.50
2018-04-15T08:08:37.881Z,14.00
2018-04-15T08:11:04.692Z,12.10
2018-04-15T08:13:31.479Z,12.27
2018-04-15T08:15:58.261Z,15.57
2018-04-15T08:18:25.012Z,19.03
2018-04-15T08:20:51.819Z,11.40
2018-04-15T08:23:18.560Z,11.87
2018-04-15T08:25:45.325Z,11.07
2018-04-15T08:28:12.134Z,12.80
2018-04-15T08:30:38.909Z,13.27
2018-04-15T08:33:05.669Z,10.77
2018-04-15T08:35:32.441Z,11.27
2018-04-15T08:37:59.337Z,13.70
2018-04-15T08:40:26.101Z,10.73
2018-04-15T08:42:52.849Z,12.50
2018-04-15T08:45:19.640Z,15.53
2018-04-15T08:47:46.424Z,10.37
2018-04-15T08:50:13.188Z,15.07
2018-04-15T08:52:39.942Z,13.77
2018-04-15T08:57:55.411Z,14.00
2018-04-15T09:11:22.394Z,17.07
2018-04-15T09:16:23.512Z,12.47
2018-04-15T09:18:50.358Z,15.73
2018-04-15T09:21:17.620Z,13.87
2018-04-15T09:23:44.449Z,16.43
2018-04-15T09:26:11.759Z,11.80
2018-04-15T09:28:38.708Z,11.10
2018-04-15T09:31:11.277Z,11.37
2018-04-15T09:33:39.237Z,17.00
2018-04-15T09:36:06.773Z,14.17
2018-04-15T09:38:34.227Z,10.10
2018-04-15T09:41:01.564Z,16.67
2018-04-15T09:43:29.605Z,16.95
2018-04-15T09:45:56.937Z,18.92
2018-04-15T09:48:25.425Z,16.85
2018-04-15T09:50:52.780Z,9.82
2018-04-15T09:53:19.692Z,12.55
2018-04-15T09:55:46.735Z,11.18
2018-04-15T09:58:13.520Z,9.70
2018-04-15T10:00:40.452Z,16.00
2018-04-15T10:03:07.236Z,13.48
2018-04-15T10:05:35.940Z,11.27
2018-04-15T10:08:02.741Z,8.52
2018-04-15T10:10:29.488Z,11.40
2018-04-15T10:12:56.282Z,15.32
2018-04-15T10:15:23.066Z,12.48
2018-04-15T10:17:49.821Z,14.90
2018-04-15T10:20:16.726Z,14.10
2018-04-15T10:22:43.529Z,14.50
2018-04-15T10:25:10.321Z,13.73
2018-04-15T10:27:37.139Z,12.15
2018-04-15T10:30:03.967Z,9.80
2018-04-15T10:32:30.904Z,12.18
2018-04-15T10:34:57.645Z,14.87
2018-04-15T10:37:24.429Z,10.20
2018-04-15T10:39:51.233Z,14.85
2018-04-15T10:42:18.103Z,19.48
2018-04-15T10:44:44.844Z,9.65
2018-04-15T10:47:11.630Z,13.95
2018-04-15T10:49:38.468Z,9.30
2018-04-15T10:52:05.285Z,11.90
2018-04-15T10:54:32.077Z,12.48
2018-04-15T10:56:58.852Z,11.88
2018-04-15T10:59:25.653Z,28.20
2018-04-15T11:01:52.405Z,14.38
2018-04-15T11:04:19.198Z,17.62
2018-04-15T11:06:45.957Z,17.62
2018-04-15T11:09:12.812Z,13.23
2018-04-15T11:11:39.622Z,11.70
2018-04-15T11:14:06.386Z,10.02
2018-04-15T11:16:33.244Z,6.10
2018-04-15T11:19:00.287Z,16.50
2018-04-15T11:21:28.097Z,13.90
2018-04-15T11:23:54.876Z,8.70
2018-04-15T11:26:21.647Z,7.28
2018-04-15T11:28:48.449Z,19.25
2018-04-15T11:31:15.246Z,12.98
2018-04-15T11:33:42.067Z,13.43
2018-04-15T11:36:08.907Z,10.95
2018-04-15T11:38:35.740Z,13.25
2018-04-15T11:41:03.010Z,9.30
2018-04-15T11:43:29.835Z,14.87
2018-04-15T11:45:56.770Z,17.15
2018-04-15T11:48:23.553Z,8.93
2018-04-15T11:50:50.442Z,10.95
2018-04-15T11:53:17.200Z,14.05
2018-04-15T11:55:43.970Z,11.50
2018-04-15T11:58:12.218Z,14.38
2018-04-15T12:00:38.986Z,16.83
2018-04-15T12:03:05.761Z,12.37
2018-04-15T12:05:32.573Z,20.17
2018-04-15T12:07:59.749Z,8.30
2018-04-15T12:10:26.571Z,11.85
2018-04-15T12:12:53.385Z,14.90
2018-04-15T12:15:20.162Z,16.15
2018-04-15T12:17:46.967Z,19.37
2018-04-15T12:20:13.719Z,11.48
2018-04-15T12:22:40.529Z,14.30
2018-04-15T12:25:07.333Z,15.87
2018-04-15T12:27:34.117Z,10.23
2018-04-15T12:30:00.870Z,14.40
2018-04-15T12:32:27.629Z,10.63
2018-04-15T12:34:55.368Z,10.73
2018-04-15T12:37:22.136Z,12.83
2018-04-15T12:39:48.901Z,12.73
2018-04-15T12:42:15.721Z,14.13
2018-04-15T12:44:42.512Z,17.77
2018-04-15T12:47:09.255Z,19.37
2018-04-15T12:49:36.061Z,19.60
2018-04-15T12:52:02.886Z,15.13
2018-04-15T12:54:29.671Z,13.63
2018-04-15T12:56:56.420Z,11.47
2018-04-15T12:59:23.170Z,17.83
2018-04-15T13:01:49.926Z,16.90
2018-04-15T13:04:16.725Z,16.60
2018-04-15T13:06:43.619Z,21.37
2018-04-15T13:09:10.396Z,11.60
2018-04-15T13:11:37.145Z,14.50
2018-04-15T13:14:03.933Z,18.87
2018-04-15T13:16:30.886Z,16.30
2018-04-15T13:18:57.653Z,13.63
2018-04-15T13:21:24.549Z,11.70
2018-04-15T13:23:51.313Z,13.37
2018-04-15T13:26:18.112Z,11.90
2018-04-15T13:28:44.901Z,14.27
2018-04-15T13:31:11.648Z,14.40
2018-04-15T13:33:38.393Z,11.55
2018-04-15T13:36:05.133Z,28.97
2018-04-15T13:38:31.912Z,23.27
2018-04-15T13:40:58.694Z,19.75
2018-04-15T13:43:25.446Z,13.02
2018-04-15T13:45:52.249Z,17.33
2018-04-15T13:48:19.024Z,20.08
2018-04-15T13:50:45.813Z,16.35
2018-04-15T13:53:12.627Z,17.08
2018-04-15T13:55:39.357Z,17.92
2018-04-15T13:58:06.108Z,16.98
2018-04-15T14:00:32.907Z,15.73
2018-04-15T14:02:59.848Z,11.95
2018-04-15T14:05:26.657Z,15.60
2018-04-15T14:07:53.455Z,37.97
2018-04-15T14:10:20.233Z,14.50
2018-04-15T14:12:47.015Z,13.50
2018-04-15T14:15:14.666Z,19.35
2018-04-15T14:17:41.492Z,17.98
2018-04-15T14:20:08.256Z,18.95
2018-04-15T14:22:35.057Z,13.32
2018-04-15T14:25:01.896Z,13.70
2018-04-15T14:27:28.808Z,16.70
2018-04-15T14:29:55.603Z,16.77
2018-04-15T14:32:22.402Z,16.95
2018-04-15T14:34:50.041Z,18.92
2018-04-15T14:37:16.782Z,12.60
2018-04-15T14:39:43.575Z,12.48
2018-04-15T14:42:10.369Z,12.20
2018-04-15T14:44:37.129Z,15.45
2018-04-15T14:47:03.889Z,15.15
2018-04-15T14:49:30.696Z,19.80
2018-04-15T14:51:57.476Z,16.27
2018-04-15T14:54:24.247Z,15.85
2018-04-15T14:56:51.088Z,12.88
2018-04-15T14:59:17.859Z,14.77
2018-04-15T15:01:44.665Z,15.27
2018-04-15T15:04:11.482Z,13.18
2018-04-15T15:06:38.280Z,15.02
2018-04-15T15:09:06.060Z,17.55
2018-04-15T15:11:32.829Z,12.77
2018-04-15T15:13:59.593Z,17.05
2018-04-15T15:16:26.395Z,20.23
2018-04-15T15:18:53.200Z,15.00
2018-04-15T15:21:19.972Z,12.35
2018-04-15T15:23:46.757Z,13.43
2018-04-15T15:26:13.531Z,18.05
2018-04-15T15:28:40.333Z,15.32
2018-04-15T15:31:07.154Z,12.77
2018-04-15T15:33:33.971Z,16.35
2018-04-15T15:36:00.719Z,16.95
2018-04-15T15:38:27.512Z,13.23
2018-04-15T15:40:54.275Z,19.70
2018-04-15T15:43:21.081Z,11.68
2018-04-15T15:45:47.901Z,16.60
2018-04-15T15:48:14.665Z,13.40
2018-04-15T15:50:41.428Z,22.52
2018-04-15T15:53:08.247Z,17.95
2018-04-15T15:55:35.014Z,19.58
2018-04-15T15:58:01.795Z,20.77
2018-04-15T16:00:28.545Z,14.87
2018-04-15T16:02:55.337Z,12.50
2018-04-15T16:05:22.118Z,15.90
2018-04-15T16:07:48.953Z,16.63
2018-04-15T16:10:15.773Z,16.00
2018-04-15T16:12:42.542Z,13.17
2018-04-15T16:15:09.310Z,22.17
2018-04-15T16:17:36.100Z,17.13
2018-04-15T16:20:02.879Z,16.47
2018-04-15T16:22:29.642Z,16.50
2018-04-15T16:24:56.413Z,20.87
2018-04-15T16:27:23.241Z,13.73
2018-04-15T16:29:50.034Z,21.40
2018-04-15T16:32:16.801Z,16.93
2018-04-15T16:34:43.654Z,21.73
2018-04-15T16:37:10.437Z,14.73
2018-04-15T16:39:37.205Z,12.37
2018-04-15T16:42:04.917Z,15.57
2018-04-15T16:44:31.696Z,15.83
2018-04-15T16:46:58.492Z,21.77
2018-04-15T16:49:25.279Z,12.83
2018-04-15T16:51:52.407Z,17.43
2018-04-15T16:54:19.184Z,13.23
2018-04-15T16:56:45.973Z,20.27
2018-04-15T16:59:12.783Z,17.65
2018-04-15T17:01:39.551Z,17.13
2018-04-15T17:04:06.326Z,15.80
2018-04-15T17:06:33.148Z,18.73
2018-04-15T17:09:00.005Z,14.90
2018-04-15T17:11:26.960Z,16.03
2018-04-15T17:13:53.761Z,14.23
2018-04-15T17:16:20.596Z,16.77
2018-04-15T17:18:47.368Z,16.23
2018-04-15T17:21:14.261Z,13.27
2018-04-15T17:23:41.057Z,15.83
2018-04-15T17:26:07.913Z,15.23
2018-04-15T17:28:34.746Z,18.10
2018-04-15T17:31:01.595Z,17.90
2018-04-15T17:33:28.421Z,13.30
2018-04-15T17:35:55.273Z,17.43
2018-04-15T17:38:22.613Z,18.27
2018-04-15T17:40:50.084Z,14.47
2018-04-15T17:43:17.025Z,10.73
2018-04-15T17:45:44.066Z,15.23
2018-04-15T17:48:10.824Z,20.67
2018-04-15T17:50:37.617Z,20.30
2018-04-15T17:53:04.576Z,19.60
2018-04-15T17:55:31.330Z,13.37
2018-04-15T17:57:58.120Z,12.50
2018-04-15T18:00:25.741Z,16.23
2018-04-15T18:02:53.244Z,14.50
2018-04-15T18:05:20.096Z,17.17
2018-04-15T18:07:46.899Z,19.70
2018-04-15T18:10:13.792Z,19.17
2018-04-15T18:12:40.641Z,20.17
2018-04-15T18:15:07.413Z,17.67
2018-04-15T18:17:34.212Z,20.83
2018-04-15T18:20:01.173Z,18.03
2018-04-15T18:22:27.973Z,15.80
2018-04-15T18:24:54.752Z,19.13
2018-04-15T18:27:21.544Z,13.87
2018-04-15T18:29:48.309Z,20.23
2018-04-15T18:32:15.143Z,21.23
2018-04-15T18:34:41.984Z,16.90
2018-04-15T18:37:08.754Z,16.37
2018-04-15T18:39:35.522Z,18.90
2018-04-15T18:42:02.319Z,14.37
2018-04-15T18:44:29.135Z,15.67
2018-04-15T18:46:56.290Z,13.27
2018-04-15T18:49:23.079Z,14.90
2018-04-15T18:51:49.925Z,19.40
2018-04-15T18:54:16.767Z,22.20
2018-04-15T18:56:43.625Z,19.23
2018-04-15T18:59:10.394Z,26.50
2018-04-15T19:01:37.205Z,19.73
2018-04-15T19:04:09.274Z,18.73
2018-04-15T19:06:45.030Z,21.40
2018-04-15T19:09:11.824Z,17.07
2018-04-15T19:11:38.625Z,21.70
2018-04-15T19:14:05.438Z,19.77
2018-04-15T19:16:32.227Z,20.70
2018-04-15T19:18:58.998Z,23.47
2018-04-15T19:21:26.289Z,24.07
2018-04-15T19:23:53.869Z,19.00
2018-04-15T19:26:20.629Z,22.10
2018-04-15T19:28:47.416Z,20.67
2018-04-15T19:31:14.327Z,18.13
2018-04-15T19:33:41.110Z,19.33
2018-04-15T19:36:07.931Z,22.23
2018-04-15T19:38:34.714Z,17.97
2018-04-15T19:41:01.473Z,14.13
2018-04-15T19:43:28.381Z,18.03
2018-04-15T19:45:56.534Z,20.17
2018-04-15T19:48:23.318Z,26.03
2018-04-15T19:50:51.018Z,18.10
2018-04-15T19:53:17.795Z,23.43
2018-04-15T19:55:44.653Z,23.10
2018-04-15T19:58:11.481Z,22.27
2018-04-15T20:00:38.609Z,21.73
2018-04-15T20:03:05.577Z,25.07
2018-04-15T20:05:32.388Z,21.33
2018-04-15T20:07:59.224Z,18.70
2018-04-15T20:10:27.229Z,26.57
2018-04-15T20:12:54.209Z,28.27
2018-04-15T20:15:21.354Z,20.10
2018-04-15T20:17:48.530Z,26.43
2018-04-15T20:20:16.727Z,24.53
2018-04-15T20:22:45.145Z,25.00
2018-04-15T20:25:11.953Z,21.17
2018-04-15T20:27:39.706Z,26.73
2018-04-15T20:30:06.558Z,20.57
2018-04-15T20:32:33.357Z,34.90
2018-04-15T20:35:00.560Z,22.83
2018-04-15T20:37:27.379Z,29.03
2018-04-15T20:39:54.233Z,27.57
2018-04-15T20:42:22.581Z,30.40
2018-04-15T20:44:49.681Z,25.00
2018-04-15T20:47:16.592Z,27.10
2018-04-15T20:49:43.431Z,24.17
2018-04-15T20:52:10.257Z,22.60
2018-04-15T20:54:37.170Z,22.83
2018-04-15T20:57:03.968Z,28.27
2018-04-15T20:59:30.745Z,19.03
2018-04-15T21:01:57.611Z,23.23
2018-04-15T21:04:24.434Z,19.70
2018-04-15T21:06:51.285Z,29.87
2018-04-15T21:09:18.050Z,25.93
2018-04-15T21:11:44.891Z,26.50
2018-04-15T21:14:11.714Z,20.90
2018-04-15T21:16:38.466Z,30.00
2018-04-15T21:19:05.301Z,24.23
2018-04-15T21:21:32.145Z,15.50
2018-04-15T21:23:58.941Z,20.87
2018-04-15T21:26:26.100Z,22.53
2018-04-15T21:28:53.060Z,23.40
2018-04-15T21:31:19.903Z,25.53
2018-04-15T21:33:46.679Z,21.13
2018-04-15T21:36:13.490Z,24.50
2018-04-15T21:38:40.262Z,20.47
2018-04-15T21:41:07.004Z,35.93
2018-04-15T21:43:33.828Z,22.13
2018-04-15T21:46:00.609Z,22.57
2018-04-15T21:48:27.455Z,18.93
2018-04-15T21:50:54.297Z,17.13
2018-04-15T21:53:21.123Z,22.10
2018-04-15T21:55:47.917Z,20.83
2018-04-15T21:58:14.661Z,18.43
2018-04-15T22:00:41.501Z,20.23
2018-04-15T22:03:08.263Z,19.57
2018-04-15T22:05:35.185Z,18.70
2018-04-15T22:08:01.975Z,19.27
2018-04-15T22:10:28.718Z,20.80
2018-04-15T22:13:01.217Z,22.47
2018-04-15T22:15:28.193Z,20.57
2018-04-15T22:17:55.161Z,17.47
2018-04-15T22:20:22.005Z,20.43
2018-04-15T22:22:48.854Z,22.70
2018-04-15T22:25:17.593Z,20.30
2018-04-15T22:27:44.687Z,22.63
2018-04-15T22:30:11.529Z,21.17
2018-04-15T22:32:38.320Z,22.37
2018-04-15T22:35:05.087Z,20.47
2018-04-15T22:37:31.839Z,24.10
2018-04-15T22:39:58.644Z,23.27
2018-04-15T22:42:25.546Z,22.90
2018-04-15T22:44:52.396Z,20.47
2018-04-15T22:47:19.188Z,21.10
2018-04-15T22:49:46.080Z,17.07
2018-04-15T22:52:12.890Z,18.77
2018-04-15T22:54:39.717Z,13.60
2018-04-15T22:57:12.297Z,20.70
2018-04-15T22:59:39.080Z,29.73
2018-04-15T23:02:05.841Z,16.30
2018-04-15T23:04:32.620Z,25.70
2018-04-15T23:06:59.385Z,20.03
2018-04-15T23:09:26.188Z,19.60
2018-04-15T23:11:52.985Z,22.67
2018-04-15T23:14:19.730Z,14.97
2018-04-15T23:16:46.580Z,20.73
2018-04-15T23:19:13.338Z,21.93
2018-04-15T23:21:40.115Z,16.50
2018-04-15T23:24:06.880Z,24.17
2018-04-15T23:26:33.613Z,26.30
2018-04-15T23:29:00.404Z,15.97
2018-04-15T23:31:27.154Z,18.77
2018-04-15T23:33:53.939Z,22.43
2018-04-15T23:36:20.738Z,24.17
2018-04-15T23:38:47.535Z,29.53
2018-04-15T23:41:14.286Z,21.63
2018-04-15T23:43:41.074Z,19.67
2018-04-15T23:46:07.833Z,26.20
2018-04-15T23:48:34.600Z,19.07
2018-04-15T23:51:01.383Z,18.60
2018-04-15T23:53:28.136Z,20.17
2018-04-15T23:55:54.924Z,26.83
2018-04-15T23:58:21.719Z,19.93
